Time;durP1;ratioP1;P1;durP2;ratioP2;P2;SDS_P1;SDS_P2;PMS_P1;PMS_P2;Temp;Humidity;BMP_temperature;BMP_pressure;BME280_temperature;BME280_humidity;BME280_pressure;Samples;Min_cycle;Max_cycle;Signal;HPM_P1;HPM_P2
2023/12/24 00:01:45;;;;;;;1.27;0.75;;;8.10;99.90;;;;;;5072506;28;20652;-84
2023/12/24 00:04:11;;;;;;;0.65;0.60;;;8.10;99.90;;;;;;5072489;28;20239;-84
2023/12/24 00:06:47;;;;;;;1.75;1.00;;;8.10;99.90;;;;;;5072371;28;20197;-84
2023/12/24 00:09:12;;;;;;;1.08;0.70;;;8.20;99.90;;;;;;5071534;28;20200;-84
2023/12/24 00:11:38;;;;;;;0.80;0.70;;;8.20;99.90;;;;;;5071902;28;20190;-84
2023/12/24 00:14:04;;;;;;;0.65;0.60;;;8.20;99.90;;;;;;5072224;28;20173;-84
2023/12/24 00:16:30;;;;;;;0.70;0.70;;;8.20;99.90;;;;;;5071724;28;20180;-84
2023/12/24 00:19:06;;;;;;;1.10;0.70;;;8.10;99.90;;;;;;5072033;28;20212;-84
2023/12/24 00:21:42;;;;;;;0.73;0.50;;;8.10;99.90;;;;;;5075844;28;20204;-84
2023/12/24 00:24:08;;;;;;;1.70;0.60;;;8.20;99.90;;;;;;5074990;28;20205;-84
2023/12/24 00:26:36;;;;;;;0.50;0.50;;;8.20;99.90;;;;;;5074923;28;20261;-84
2023/12/24 00:29:12;;;;;;;0.57;0.57;;;8.20;99.90;;;;;;5075079;28;20225;-84
2023/12/24 00:31:38;;;;;;;0.55;0.55;;;8.20;99.90;;;;;;5075616;28;20208;-84
2023/12/24 00:34:03;;;;;;;0.70;0.65;;;8.20;99.90;;;;;;5076108;28;20165;-84
2023/12/24 00:37:02;;;;;;;0.85;0.85;;;8.20;99.90;;;;;;5074882;28;20178;-84
2023/12/24 00:39:28;;;;;;;0.70;0.70;;;8.20;99.90;;;;;;5074877;28;20194;-84
2023/12/24 00:42:45;;;;;;;0.93;0.70;;;8.20;99.90;;;;;;5075043;28;20211;-83
2023/12/24 00:45:12;;;;;;;0.60;0.60;;;8.20;99.90;;;;;;5075887;28;20185;-83
2023/12/24 00:47:38;;;;;;;1.10;0.50;;;8.30;99.90;;;;;;5074521;28;20180;-83
2023/12/24 00:50:06;;;;;;;0.68;0.60;;;8.20;99.90;;;;;;5075727;28;20639;-83
2023/12/24 00:52:38;;;;;;;1.63;0.60;;;8.20;99.90;;;;;;5075432;28;20190;-83
2023/12/24 00:55:13;;;;;;;0.60;0.57;;;8.30;99.90;;;;;;5074691;28;20231;-83
2023/12/24 00:57:38;;;;;;;0.65;0.50;;;8.20;99.90;;;;;;5074430;28;20219;-84
2023/12/24 01:00:05;;;;;;;0.60;0.60;;;8.20;99.90;;;;;;5074380;28;20181;-84
2023/12/24 01:02:31;;;;;;;0.70;0.70;;;8.10;99.90;;;;;;5075119;28;20340;-84
2023/12/24 01:04:56;;;;;;;0.65;0.65;;;8.20;99.90;;;;;;5075150;28;20201;-84
2023/12/24 01:07:22;;;;;;;2.22;0.45;;;8.10;99.90;;;;;;5073644;28;20177;-84
2023/12/24 01:09:48;;;;;;;0.60;0.60;;;8.20;99.90;;;;;;5075122;28;20201;-84
2023/12/24 01:12:13;;;;;;;0.88;0.88;;;8.10;99.90;;;;;;5075013;28;20652;-84
2023/12/24 01:14:39;;;;;;;0.82;0.40;;;8.20;99.90;;;;;;5075060;28;20174;-83
2023/12/24 01:17:05;;;;;;;0.60;0.60;;;8.20;99.90;;;;;;5074140;28;20177;-84
2023/12/24 01:19:33;;;;;;;0.90;0.60;;;8.20;99.90;;;;;;5074331;28;20282;-84
2023/12/24 01:22:03;;;;;;;1.00;0.40;;;8.20;99.90;;;;;;5075052;28;20208;-83
2023/12/24 01:24:29;;;;;;;0.50;0.50;;;8.20;99.90;;;;;;5074351;28;20189;-84
2023/12/24 01:26:54;;;;;;;1.02;0.57;;;8.20;99.90;;;;;;5074100;28;20165;-84
2023/12/24 01:29:20;;;;;;;2.60;0.55;;;8.20;99.90;;;;;;5073934;28;20224;-84
2023/12/24 01:31:48;;;;;;;0.38;0.38;;;8.20;99.90;;;;;;5074769;28;20201;-84
2023/12/24 01:34:14;;;;;;;0.90;0.75;;;8.30;99.90;;;;;;5074302;28;20573;-84
2023/12/24 01:36:40;;;;;;;1.88;0.70;;;8.30;99.90;;;;;;5073633;28;20176;-84
2023/12/24 01:39:10;;;;;;;1.73;0.57;;;8.30;99.90;;;;;;5075058;28;20239;-84
2023/12/24 01:41:38;;;;;;;1.92;0.60;;;8.30;99.90;;;;;;5074069;28;20201;-84
2023/12/24 01:44:04;;;;;;;0.80;0.50;;;8.30;99.90;;;;;;5074551;28;20208;-82
2023/12/24 01:46:30;;;;;;;0.63;0.63;;;8.30;99.90;;;;;;5074774;28;20197;-85
2023/12/24 01:48:57;;;;;;;1.15;0.50;;;8.30;99.90;;;;;;5073407;28;20633;-85
2023/12/24 01:51:24;;;;;;;1.83;0.85;;;8.20;99.90;;;;;;5073587;28;20649;-85
2023/12/24 01:53:52;;;;;;;3.50;0.80;;;8.20;99.90;;;;;;5073193;28;20256;-85
2023/12/24 01:56:21;;;;;;;0.63;0.60;;;8.20;99.90;;;;;;5074122;28;20180;-85
2023/12/24 01:58:46;;;;;;;0.52;0.52;;;8.20;99.90;;;;;;5073179;28;20189;-85
2023/12/24 02:59:30;;;;;;;1.67;1.17;;;8.30;99.90;;;;;;4915522;29;20269;-76
2023/12/24 03:01:56;;;;;;;1.20;0.95;;;8.30;99.90;;;;;;4994246;28;20205;-76
2023/12/24 03:04:21;;;;;;;1.27;0.98;;;8.30;99.90;;;;;;5056696;28;20184;-75
2023/12/24 03:06:47;;;;;;;1.67;1.20;;;8.30;99.90;;;;;;5056088;28;20259;-75
2023/12/24 03:09:13;;;;;;;1.13;1.05;;;8.40;99.90;;;;;;5055911;28;20180;-75
2023/12/24 03:11:48;;;;;;;2.17;1.10;;;8.40;99.90;;;;;;5055998;28;20188;-75
2023/12/24 03:14:13;;;;;;;2.47;1.10;;;8.40;99.90;;;;;;5055698;28;20196;-75
2023/12/24 03:16:39;;;;;;;1.15;0.93;;;8.40;99.90;;;;;;5055957;28;20220;-75
2023/12/24 03:19:05;;;;;;;1.75;1.10;;;8.40;99.90;;;;;;5055602;28;20231;-75
2023/12/24 03:21:30;;;;;;;1.95;1.20;;;8.40;99.90;;;;;;5055463;28;20201;-76
2023/12/24 03:24:34;;;;;;;1.40;1.00;;;8.40;99.90;;;;;;5055447;28;20241;-76
2023/12/24 03:26:59;;;;;;;2.20;1.13;;;8.40;99.90;;;;;;5055539;28;20229;-74
2023/12/24 03:29:25;;;;;;;1.48;1.17;;;8.40;99.90;;;;;;5055992;28;20204;-75
2023/12/24 03:31:50;;;;;;;2.38;1.10;;;8.40;99.90;;;;;;5055135;28;20181;-74
2023/12/24 03:34:16;;;;;;;0.90;0.90;;;8.40;99.90;;;;;;5055583;28;20184;-75
2023/12/24 03:36:42;;;;;;;1.75;1.00;;;8.40;99.90;;;;;;5059908;28;20201;-75
2023/12/24 03:39:14;;;;;;;1.15;0.90;;;8.40;99.90;;;;;;5060107;28;20209;-75
2023/12/24 03:41:40;;;;;;;3.33;1.10;;;8.40;99.90;;;;;;5059567;28;20193;-75
2023/12/24 03:44:06;;;;;;;1.80;1.10;;;8.40;99.90;;;;;;5059670;28;20177;-75
2023/12/24 03:46:32;;;;;;;1.83;1.00;;;8.40;99.90;;;;;;5058915;28;20201;-75
2023/12/24 03:48:58;;;;;;;4.20;1.20;;;8.40;99.90;;;;;;5060164;28;20728;-75
2023/12/24 03:51:24;;;;;;;1.48;0.90;;;8.40;99.90;;;;;;5059309;28;20201;-76
2023/12/24 03:53:49;;;;;;;1.90;1.17;;;8.40;99.90;;;;;;5058436;28;20184;-76
2023/12/24 03:56:15;;;;;;;1.10;1.00;;;8.30;99.90;;;;;;5059034;28;20189;-75
2023/12/24 03:58:40;;;;;;;0.90;0.80;;;8.40;99.90;;;;;;5059010;28;20181;-75
2023/12/24 04:01:08;;;;;;;1.52;0.88;;;8.40;99.90;;;;;;5058956;28;20672;-75
2023/12/24 04:03:34;;;;;;;0.70;0.70;;;8.40;99.90;;;;;;5076829;28;20193;-75
2023/12/24 04:06:20;;;;;;;0.93;0.90;;;8.40;99.90;;;;;;5058361;28;20203;-75
2023/12/24 04:08:45;;;;;;;1.42;1.00;;;8.40;99.90;;;;;;5068746;28;20162;-75
2023/12/24 04:11:16;;;;;;;2.33;0.80;;;8.40;99.90;;;;;;5070379;28;20363;-74
2023/12/24 04:14:09;;;;;;;0.70;0.70;;;8.40;99.90;;;;;;5058874;28;20181;-74
2023/12/24 04:16:35;;;;;;;0.93;0.70;;;8.40;99.90;;;;;;5076410;28;20279;-74
2023/12/24 04:19:00;;;;;;;1.15;0.88;;;8.40;99.90;;;;;;5059335;28;20196;-74
2023/12/24 04:21:27;;;;;;;1.98;0.73;;;8.40;99.90;;;;;;5076461;28;20656;-74
2023/12/24 04:23:53;;;;;;;2.60;0.80;;;8.40;99.90;;;;;;5058596;28;20177;-74
2023/12/24 04:26:18;;;;;;;0.90;0.85;;;8.40;99.90;;;;;;5058257;28;20221;-74
2023/12/24 04:28:44;;;;;;;0.70;0.70;;;8.40;99.90;;;;;;5058604;28;20178;-74
2023/12/24 04:31:09;;;;;;;1.00;0.88;;;8.40;99.90;;;;;;5045067;28;20174;-74
2023/12/24 04:33:35;;;;;;;1.08;0.98;;;8.40;99.90;;;;;;5053388;28;20232;-74
2023/12/24 04:36:00;;;;;;;1.45;0.80;;;8.40;99.90;;;;;;5061940;28;20193;-75
2023/12/24 04:38:26;;;;;;;0.90;0.90;;;8.40;99.90;;;;;;5062701;28;20181;-75
2023/12/24 04:40:51;;;;;;;0.93;0.80;;;8.40;99.90;;;;;;5064070;28;20185;-75
2023/12/24 04:43:17;;;;;;;2.30;0.73;;;8.40;99.90;;;;;;5063600;28;20227;-75
2023/12/24 04:45:43;;;;;;;1.48;0.70;;;8.40;99.90;;;;;;5062587;28;20251;-75
2023/12/24 04:48:08;;;;;;;0.85;0.85;;;8.40;99.90;;;;;;5063651;28;20184;-75
2023/12/24 04:50:34;;;;;;;1.13;0.98;;;8.30;99.90;;;;;;5063295;28;20194;-75
2023/12/24 04:53:02;;;;;;;1.08;1.08;;;8.30;99.90;;;;;;5063393;28;20178;-75
2023/12/24 04:55:28;;;;;;;1.02;1.02;;;8.30;99.90;;;;;;5062543;28;20187;-75
2023/12/24 04:57:53;;;;;;;2.67;1.20;;;8.30;99.90;;;;;;5063237;28;20272;-75
2023/12/24 05:00:19;;;;;;;0.90;0.90;;;8.30;99.90;;;;;;5062736;28;20204;-76
2023/12/24 05:02:44;;;;;;;1.75;0.95;;;8.30;99.90;;;;;;5062945;28;20204;-76
2023/12/24 05:05:10;;;;;;;0.98;0.90;;;8.30;99.90;;;;;;5063294;28;20196;-75
2023/12/24 05:07:37;;;;;;;1.10;1.00;;;8.30;99.90;;;;;;5062619;28;20193;-75
2023/12/24 05:10:03;;;;;;;1.20;1.10;;;8.30;99.90;;;;;;5080536;28;20202;-75
2023/12/24 05:12:28;;;;;;;2.78;1.33;;;8.30;99.90;;;;;;5063179;28;20208;-75
2023/12/24 05:14:54;;;;;;;3.63;1.10;;;8.30;99.90;;;;;;5062814;28;20186;-75
2023/12/24 05:17:19;;;;;;;1.52;1.33;;;8.40;99.90;;;;;;5060807;28;20217;-75
2023/12/24 05:19:45;;;;;;;2.28;1.27;;;8.30;99.90;;;;;;5062413;28;20199;-75
2023/12/24 05:22:10;;;;;;;2.38;1.23;;;8.40;99.90;;;;;;5062181;28;20202;-75
2023/12/24 05:24:36;;;;;;;3.15;1.52;;;8.40;99.90;;;;;;5062328;28;20590;-75
2023/12/24 05:27:01;;;;;;;2.67;1.30;;;8.40;99.90;;;;;;5061353;28;20197;-75
2023/12/24 05:29:27;;;;;;;1.33;1.10;;;8.40;99.90;;;;;;5062569;28;20218;-75
2023/12/24 05:31:54;;;;;;;1.30;1.20;;;8.30;99.90;;;;;;5062533;28;20270;-75
2023/12/24 05:34:19;;;;;;;3.47;1.30;;;8.30;99.90;;;;;;5063606;28;20256;-75
2023/12/24 05:36:47;;;;;;;2.15;1.50;;;8.30;99.90;;;;;;5063567;28;20290;-75
2023/12/24 05:39:14;;;;;;;2.65;1.33;;;8.30;99.90;;;;;;5063025;28;20657;-75
2023/12/24 05:41:44;;;;;;;1.67;1.50;;;8.20;99.90;;;;;;5080070;28;20193;-75
2023/12/24 05:44:10;;;;;;;3.78;1.23;;;8.20;99.90;;;;;;5064337;28;20182;-75
2023/12/24 05:46:35;;;;;;;1.40;1.30;;;8.20;99.90;;;;;;5081378;28;20185;-75
2023/12/24 05:49:01;;;;;;;1.30;1.20;;;8.10;99.90;;;;;;5063990;28;20594;-75
2023/12/24 05:51:27;;;;;;;3.60;1.13;;;8.10;99.90;;;;;;5064011;28;20184;-75
2023/12/24 05:53:52;;;;;;;1.58;1.33;;;8.00;99.90;;;;;;5064047;28;20181;-75
2023/12/24 05:56:18;;;;;;;2.25;1.27;;;8.00;99.90;;;;;;5063653;28;20276;-75
2023/12/24 05:58:43;;;;;;;1.48;1.00;;;8.00;99.90;;;;;;5064759;28;20249;-75
2023/12/24 06:01:09;;;;;;;1.20;1.10;;;7.90;99.90;;;;;;5064235;28;20177;-75
2023/12/24 06:03:35;;;;;;;1.60;1.27;;;8.00;99.90;;;;;;5063320;28;20205;-75
2023/12/24 06:06:00;;;;;;;1.70;1.13;;;7.90;99.90;;;;;;5063434;28;20287;-75
2023/12/24 06:08:26;;;;;;;1.52;1.33;;;8.00;99.90;;;;;;5064471;28;20178;-75
2023/12/24 06:10:51;;;;;;;1.52;1.10;;;7.90;99.90;;;;;;5063244;28;20184;-75
2023/12/24 06:13:17;;;;;;;2.08;1.17;;;7.90;99.90;;;;;;5081752;28;20188;-75
2023/12/24 06:15:42;;;;;;;1.80;1.10;;;7.90;99.90;;;;;;5063524;28;20184;-75
2023/12/24 06:18:09;;;;;;;1.00;0.98;;;7.90;99.90;;;;;;5062689;28;20177;-75
2023/12/24 06:20:37;;;;;;;1.30;1.20;;;7.90;99.90;;;;;;5081232;28;20165;-75
2023/12/24 06:23:03;;;;;;;0.93;0.93;;;7.90;99.90;;;;;;5062839;28;20201;-75
2023/12/24 06:25:28;;;;;;;1.15;1.05;;;8.00;99.90;;;;;;5062214;28;20720;-76
2023/12/24 06:27:54;;;;;;;0.95;0.95;;;7.90;99.90;;;;;;5062571;28;20216;-76
2023/12/24 06:30:20;;;;;;;1.77;1.00;;;7.90;99.90;;;;;;5063080;28;20235;-76
2023/12/24 06:32:47;;;;;;;1.10;0.90;;;7.90;99.90;;;;;;5062691;28;20539;-76
2023/12/24 06:35:13;;;;;;;0.80;0.80;;;7.90;99.90;;;;;;5061771;28;20182;-76
2023/12/24 06:37:39;;;;;;;0.70;0.70;;;7.90;99.90;;;;;;5061778;28;20198;-76
2023/12/24 06:40:05;;;;;;;1.58;1.05;;;7.90;99.90;;;;;;5080180;28;20185;-76
2023/12/24 06:42:31;;;;;;;2.45;0.85;;;7.90;99.90;;;;;;5061358;28;20193;-76
2023/12/24 06:44:56;;;;;;;1.23;0.90;;;7.80;99.90;;;;;;5061964;28;20260;-76
2023/12/24 06:47:22;;;;;;;1.00;0.93;;;7.80;99.90;;;;;;5057501;28;20288;-75
2023/12/24 06:49:47;;;;;;;0.85;0.85;;;7.80;99.90;;;;;;5057582;28;20174;-75
2023/12/24 06:52:13;;;;;;;1.95;1.27;;;7.80;99.90;;;;;;5052649;28;20171;-74
2023/12/24 06:54:39;;;;;;;2.05;1.10;;;7.80;99.90;;;;;;5053133;28;20186;-74
2023/12/24 06:57:08;;;;;;;0.80;0.80;;;7.80;99.90;;;;;;5053445;28;20196;-75
2023/12/24 06:59:34;;;;;;;0.77;0.70;;;7.80;99.90;;;;;;5055865;28;20174;-75
2023/12/24 07:02:00;;;;;;;2.10;1.05;;;7.90;99.90;;;;;;5073346;28;20259;-74
2023/12/24 07:04:25;;;;;;;0.70;0.70;;;7.90;99.90;;;;;;5056374;28;20205;-74
2023/12/24 07:06:51;;;;;;;0.90;0.90;;;7.80;99.90;;;;;;5056431;28;20204;-74
2023/12/24 07:09:16;;;;;;;0.80;0.80;;;7.90;99.90;;;;;;5055849;28;20169;-74
2023/12/24 07:11:42;;;;;;;0.60;0.60;;;7.90;99.90;;;;;;5055484;28;20692;-74
2023/12/24 07:14:07;;;;;;;0.70;0.70;;;7.90;99.90;;;;;;5055334;28;20212;-74
2023/12/24 07:16:33;;;;;;;0.80;0.80;;;7.90;99.90;;;;;;5056240;28;20217;-74
2023/12/24 07:18:59;;;;;;;1.85;0.63;;;7.90;99.90;;;;;;5073340;28;20185;-74
2023/12/24 07:21:25;;;;;;;1.77;1.67;;;7.90;99.90;;;;;;5055166;28;20268;-74
2023/12/24 07:23:50;;;;;;;3.80;3.42;;;7.90;99.90;;;;;;5055772;28;20193;-74
2023/12/24 07:26:16;;;;;;;4.95;4.57;;;7.90;99.90;;;;;;5055746;28;20242;-74
2023/12/24 07:28:41;;;;;;;3.97;3.67;;;7.90;99.90;;;;;;5057201;28;20177;-74
2023/12/24 07:31:07;;;;;;;2.20;2.10;;;7.90;99.90;;;;;;5059431;28;20166;-74
2023/12/24 07:33:33;;;;;;;4.15;3.85;;;7.90;99.90;;;;;;5059349;28;20181;-74
2023/12/24 07:35:59;;;;;;;6.30;5.80;;;7.90;99.90;;;;;;5059888;28;20197;-74
2023/12/24 07:38:29;;;;;;;4.35;4.05;;;7.90;99.90;;;;;;5059973;28;20180;-74
2023/12/24 07:40:55;;;;;;;2.50;2.40;;;7.90;99.90;;;;;;5059175;28;20173;-74
2023/12/24 07:43:21;;;;;;;1.40;1.38;;;7.90;99.90;;;;;;5059380;28;20232;-74
2023/12/24 07:45:47;;;;;;;1.70;1.70;;;7.90;99.90;;;;;;5059006;28;20169;-75
2023/12/24 07:48:12;;;;;;;1.35;1.35;;;7.90;99.90;;;;;;5059094;28;20177;-75
2023/12/24 07:50:38;;;;;;;2.80;2.70;;;8.00;99.90;;;;;;5059584;28;20209;-74
2023/12/24 07:53:03;;;;;;;3.10;2.90;;;8.00;99.90;;;;;;5059068;28;20177;-75
2023/12/24 07:55:29;;;;;;;2.97;2.78;;;8.00;99.90;;;;;;5058882;28;20268;-74
2023/12/24 07:57:55;;;;;;;3.22;3.03;;;8.00;99.90;;;;;;5059415;28;20208;-75
2023/12/24 08:00:21;;;;;;;1.70;1.60;;;8.00;99.90;;;;;;5059873;28;20264;-75
2023/12/24 08:02:47;;;;;;;1.70;1.60;;;8.00;99.90;;;;;;5059029;28;20197;-75
2023/12/24 08:05:13;;;;;;;3.15;1.50;;;8.00;99.90;;;;;;5058932;28;20173;-74
2023/12/24 08:07:39;;;;;;;2.03;1.92;;;8.00;99.90;;;;;;5058883;28;20208;-74
2023/12/24 08:10:05;;;;;;;3.03;2.83;;;8.00;99.90;;;;;;5059413;28;20176;-74
2023/12/24 08:12:31;;;;;;;3.20;2.97;;;8.00;99.90;;;;;;5058539;28;20182;-74
2023/12/24 08:14:56;;;;;;;3.08;2.13;;;8.10;99.90;;;;;;5059740;28;20177;-75
2023/12/24 08:17:22;;;;;;;7.65;6.93;;;8.10;99.90;;;;;;5058828;28;20232;-75
2023/12/24 08:19:47;;;;;;;5.63;5.13;;;8.00;99.90;;;;;;5076629;28;20184;-75
2023/12/24 08:22:13;;;;;;;84.57;59.22;;;8.00;99.90;;;;;;5059048;28;20236;-75
2023/12/24 08:24:39;;;;;;;14.63;13.13;;;8.10;99.90;;;;;;5058522;28;20216;-75
2023/12/24 08:27:05;;;;;;;9.55;8.65;;;8.10;99.90;;;;;;5060492;28;20198;-75
2023/12/24 08:29:31;;;;;;;7.38;6.78;;;8.10;99.90;;;;;;5059999;28;20662;-75
2023/12/24 08:31:57;;;;;;;7.30;6.70;;;8.10;99.90;;;;;;5060697;28;20181;-75
2023/12/24 08:34:23;;;;;;;147.70;62.80;;;8.10;99.90;;;;;;5058548;28;20319;-74
2023/12/24 08:36:48;;;;;;;30.35;13.75;;;8.10;99.90;;;;;;5075001;28;20265;-74
2023/12/24 08:39:14;;;;;;;9.07;5.45;;;8.10;99.90;;;;;;5058597;28;20645;-74
2023/12/24 08:41:40;;;;;;;5.28;2.97;;;8.10;99.90;;;;;;5075868;28;20169;-75
2023/12/24 08:44:05;;;;;;;3.10;2.80;;;8.20;99.90;;;;;;5057978;28;20173;-75
2023/12/24 08:46:31;;;;;;;2.05;1.90;;;8.20;99.90;;;;;;5057855;28;20189;-75
2023/12/24 08:48:56;;;;;;;2.00;1.90;;;8.20;99.90;;;;;;5058770;28;20174;-75
2023/12/24 08:51:22;;;;;;;2.10;2.00;;;8.20;99.90;;;;;;5058106;28;20204;-75
2023/12/24 08:53:48;;;;;;;1.33;1.33;;;8.30;99.90;;;;;;5057877;28;20595;-75
2023/12/24 08:56:13;;;;;;;1.40;1.30;;;8.30;99.90;;;;;;5058827;28;20247;-75
2023/12/24 08:58:39;;;;;;;1.42;1.33;;;8.30;99.90;;;;;;5058176;28;20181;-76
2023/12/24 09:01:04;;;;;;;2.20;2.00;;;8.40;99.90;;;;;;5058270;28;20223;-77
2023/12/24 09:03:30;;;;;;;1.10;1.10;;;8.40;99.90;;;;;;5058330;28;20206;-75
2023/12/24 09:05:55;;;;;;;0.73;0.73;;;8.40;99.90;;;;;;5057740;28;20193;-75
2023/12/24 09:08:21;;;;;;;1.90;0.90;;;8.50;99.90;;;;;;5057495;28;20265;-75
2023/12/24 09:10:47;;;;;;;2.80;2.60;;;8.50;99.90;;;;;;5057778;28;20174;-75
2023/12/24 09:13:12;;;;;;;1.48;1.48;;;8.60;99.90;;;;;;5058208;28;20279;-75
2023/12/24 09:15:38;;;;;;;1.30;1.17;;;8.60;99.90;;;;;;5057332;28;20181;-75
2023/12/24 09:18:03;;;;;;;1.38;1.35;;;8.70;99.90;;;;;;5057615;28;20200;-75
2023/12/24 09:20:29;;;;;;;1.27;1.27;;;8.70;99.90;;;;;;5057605;28;20178;-75
2023/12/24 09:22:55;;;;;;;3.20;2.90;;;8.80;99.90;;;;;;5057262;28;20221;-75
2023/12/24 09:25:21;;;;;;;12.98;11.18;;;8.80;99.90;;;;;;5058474;28;20182;-75
2023/12/24 09:27:46;;;;;;;5.22;4.22;;;8.90;99.90;;;;;;5073645;28;20193;-75
2023/12/24 09:30:12;;;;;;;2.47;2.33;;;9.00;99.90;;;;;;5057489;28;20173;-75
2023/12/24 09:32:37;;;;;;;3.13;2.92;;;9.00;99.90;;;;;;5057560;28;20192;-75
2023/12/24 09:35:06;;;;;;;2.17;2.08;;;9.00;99.90;;;;;;5057849;28;20611;-75
2023/12/24 09:37:32;;;;;;;2.15;2.05;;;9.00;99.90;;;;;;5057531;28;20219;-76
2023/12/24 09:39:58;;;;;;;2.00;1.90;;;9.00;99.90;;;;;;5057554;28;20729;-75
2023/12/24 09:42:25;;;;;;;2.42;1.95;;;9.00;99.90;;;;;;5056824;28;20207;-75
2023/12/24 09:44:50;;;;;;;1.95;1.40;;;8.90;99.90;;;;;;5075509;28;20192;-75
2023/12/24 09:47:16;;;;;;;1.60;1.60;;;8.90;99.90;;;;;;5057149;28;20185;-75
2023/12/24 09:49:41;;;;;;;1.38;1.38;;;8.80;99.90;;;;;;5056765;28;20215;-76
2023/12/24 09:52:07;;;;;;;4.57;4.28;;;8.80;99.90;;;;;;5056252;28;20235;-75
2023/12/24 09:54:33;;;;;;;4.40;4.10;;;8.80;99.90;;;;;;5056959;28;20227;-75
2023/12/24 09:56:59;;;;;;;2.50;2.40;;;8.80;99.90;;;;;;5056456;28;20241;-76
2023/12/24 09:59:24;;;;;;;1.85;1.75;;;8.80;99.90;;;;;;5056634;28;20182;-75
2023/12/24 10:01:50;;;;;;;1.30;1.15;;;8.80;99.90;;;;;;5056688;28;20204;-75
2023/12/24 10:04:16;;;;;;;1.35;1.35;;;8.80;99.90;;;;;;5056446;28;20169;-75
2023/12/24 10:06:55;;;;;;;3.10;2.90;;;8.80;99.90;;;;;;5074206;28;20217;-75
2023/12/24 10:09:23;;;;;;;2.20;2.10;;;8.80;99.90;;;;;;5074410;28;20188;-76
2023/12/24 10:12:05;;;;;;;2.03;1.92;;;8.80;99.90;;;;;;5056202;28;20625;-75
2023/12/24 10:14:31;;;;;;;1.42;1.33;;;8.80;99.90;;;;;;5074596;28;20718;-77
2023/12/24 10:17:00;;;;;;;1.40;1.40;;;8.90;99.90;;;;;;5057855;28;20285;-76
2023/12/24 10:19:27;;;;;;;1.40;1.40;;;9.00;99.90;;;;;;5076503;28;20184;-77
2023/12/24 10:22:02;;;;;;;1.10;1.10;;;9.00;99.90;;;;;;5056772;28;20212;-75
2023/12/24 10:24:31;;;;;;;1.90;1.02;;;9.10;99.90;;;;;;5056187;28;20219;-76
2023/12/24 10:27:08;;;;;;;1.00;1.00;;;9.20;99.90;;;;;;5056554;28;20198;-75
2023/12/24 10:29:35;;;;;;;0.95;0.95;;;9.20;99.90;;;;;;5056504;28;20169;-75
2023/12/24 10:32:01;;;;;;;0.70;0.70;;;9.30;99.90;;;;;;5052825;28;20235;-81
2023/12/24 10:34:28;;;;;;;2.28;0.55;;;9.40;99.90;;;;;;5055840;28;20185;-75
2023/12/24 10:36:53;;;;;;;1.08;1.08;;;9.40;99.90;;;;;;5073213;28;20711;-75
2023/12/24 10:39:24;;;;;;;1.90;1.80;;;9.40;99.90;;;;;;5054983;28;20178;-77
2023/12/24 10:41:56;;;;;;;2.17;1.30;;;9.30;99.90;;;;;;5054746;28;20205;-75
2023/12/24 10:44:22;;;;;;;1.00;1.00;;;9.30;99.90;;;;;;5055845;28;20229;-76
2023/12/24 10:46:48;;;;;;;1.10;1.10;;;9.30;99.90;;;;;;5055706;28;20194;-77
2023/12/24 10:49:14;;;;;;;1.55;1.45;;;9.30;99.90;;;;;;5048442;28;20182;-75
2023/12/24 10:51:39;;;;;;;1.00;1.00;;;9.30;99.90;;;;;;5057148;28;20203;-76
2023/12/24 10:54:07;;;;;;;5.90;5.30;;;9.30;99.90;;;;;;5061908;28;20173;-76
2023/12/24 10:56:47;;;;;;;5.32;4.90;;;9.20;99.90;;;;;;5060186;28;20197;-76
2023/12/24 10:59:28;;;;;;;2.42;2.33;;;9.20;99.90;;;;;;5072382;28;20181;-75
2023/12/24 11:01:54;;;;;;;1.60;1.60;;;9.10;99.90;;;;;;5055067;28;20267;-75
2023/12/24 11:04:45;;;;;;;1.90;1.50;;;9.10;99.90;;;;;;5073401;28;20685;-75
2023/12/24 11:07:33;;;;;;;1.67;1.65;;;9.10;99.90;;;;;;5055306;28;20217;-75
2023/12/24 11:10:00;;;;;;;1.60;1.50;;;9.10;99.90;;;;;;5065045;28;20277;-75
2023/12/24 11:12:33;;;;;;;1.00;1.00;;;9.10;99.90;;;;;;5038171;28;20192;-75
2023/12/24 11:14:59;;;;;;;1.83;1.73;;;9.10;99.90;;;;;;5053117;28;20241;-75
2023/12/24 11:17:38;;;;;;;1.48;1.13;;;9.10;99.90;;;;;;5036925;28;20225;-75
2023/12/24 11:20:24;;;;;;;1.38;1.33;;;9.20;99.90;;;;;;5048808;28;20215;-75
2023/12/24 11:23:04;;;;;;;1.50;1.50;;;9.20;99.90;;;;;;5053350;28;20193;-76
2023/12/24 11:25:47;;;;;;;1.77;1.75;;;9.20;99.90;;;;;;5061870;28;20280;-76
2023/12/24 11:28:25;;;;;;;2.05;1.95;;;9.20;99.90;;;;;;5053759;28;20177;-75
2023/12/24 11:30:51;;;;;;;1.75;1.20;;;9.20;99.90;;;;;;5053500;28;20201;-75
2023/12/24 11:33:28;;;;;;;1.67;1.67;;;9.20;99.90;;;;;;5053078;28;20258;-75
2023/12/24 11:36:01;;;;;;;1.17;1.17;;;9.20;99.90;;;;;;5053272;28;20205;-75
2023/12/24 11:38:33;;;;;;;1.60;1.50;;;9.20;99.90;;;;;;5053924;28;20639;-76
2023/12/24 11:41:05;;;;;;;2.65;1.73;;;9.20;99.90;;;;;;5073155;28;20642;-75
2023/12/24 11:43:31;;;;;;;2.83;2.72;;;9.20;99.90;;;;;;5055592;28;20201;-76
2023/12/24 11:45:57;;;;;;;2.72;2.58;;;9.10;99.90;;;;;;5055486;28;20193;-76
2023/12/24 11:48:28;;;;;;;2.20;2.10;;;9.20;99.90;;;;;;5055075;28;20182;-76
2023/12/24 11:51:07;;;;;;;2.05;1.95;;;9.10;99.90;;;;;;5055381;28;20551;-75
2023/12/24 11:53:35;;;;;;;1.00;0.80;;;9.10;99.90;;;;;;5072913;28;20158;-75
2023/12/24 11:56:17;;;;;;;1.23;1.20;;;9.10;99.90;;;;;;5054881;28;20225;-75
2023/12/24 11:58:49;;;;;;;1.45;1.40;;;9.10;99.90;;;;;;5054987;28;20572;-75
2023/12/24 12:01:25;;;;;;;1.45;1.45;;;9.10;99.90;;;;;;5055458;28;20184;-75
2023/12/24 12:04:09;;;;;;;4.38;4.07;;;9.10;99.90;;;;;;5055628;28;20197;-75
2023/12/24 12:06:36;;;;;;;7.05;6.47;;;9.10;99.90;;;;;;5055710;28;20202;-75
2023/12/24 12:09:10;;;;;;;6.78;6.18;;;9.10;99.90;;;;;;5072826;28;20193;-75
2023/12/24 12:11:35;;;;;;;9.60;8.70;;;9.10;99.90;;;;;;5072711;28;20236;-75
2023/12/24 12:14:01;;;;;;;14.77;13.27;;;9.10;99.90;;;;;;5070986;28;20257;-76
2023/12/24 12:16:27;;;;;;;8.40;7.60;;;9.10;99.90;;;;;;5049895;28;20224;-75
2023/12/24 12:18:53;;;;;;;9.93;8.98;;;9.10;99.90;;;;;;5054224;28;20192;-74
2023/12/24 12:21:19;;;;;;;15.30;13.82;;;9.10;99.90;;;;;;5048780;28;20181;-77
2023/12/24 12:23:44;;;;;;;8.48;7.68;;;9.10;99.90;;;;;;5058071;28;20224;-75
2023/12/24 12:26:10;;;;;;;5.10;4.70;;;9.10;99.90;;;;;;5058865;28;20193;-75
2023/12/24 12:28:36;;;;;;;8.65;7.85;;;9.10;99.90;;;;;;5053996;28;20224;-76
2023/12/24 12:31:02;;;;;;;4.53;4.13;;;9.20;99.90;;;;;;5054531;28;20184;-75
2023/12/24 12:33:28;;;;;;;5.22;4.60;;;9.20;99.90;;;;;;5057923;28;20189;-76
2023/12/24 12:35:55;;;;;;;4.95;4.53;;;9.10;99.90;;;;;;5048860;28;20225;-76
2023/12/24 12:38:21;;;;;;;3.33;3.03;;;9.20;99.90;;;;;;5058383;28;20197;-76
2023/12/24 12:40:47;;;;;;;2.60;2.40;;;9.20;99.90;;;;;;5047743;28;20175;-76
2023/12/24 12:43:13;;;;;;;1.90;1.80;;;9.10;99.90;;;;;;5075751;28;20197;-76
2023/12/24 12:45:39;;;;;;;1.63;1.52;;;9.20;99.90;;;;;;5050502;28;20207;-76
2023/12/24 12:48:06;;;;;;;1.63;1.60;;;9.20;99.90;;;;;;5057946;28;20178;-76
2023/12/24 12:50:32;;;;;;;1.60;1.60;;;9.10;99.90;;;;;;5056807;28;20256;-75
2023/12/24 12:52:58;;;;;;;1.55;1.50;;;9.10;99.90;;;;;;5050414;28;20277;-75
2023/12/24 12:55:23;;;;;;;1.20;1.10;;;9.10;99.90;;;;;;5055396;28;20189;-76
2023/12/24 12:57:49;;;;;;;1.50;1.40;;;9.10;99.90;;;;;;5050448;28;20225;-77
2023/12/24 13:00:20;;;;;;;1.08;1.00;;;9.10;99.90;;;;;;5056587;28;20642;-76
2023/12/24 13:02:46;;;;;;;0.65;0.65;;;9.10;99.90;;;;;;5056336;28;20197;-76
2023/12/24 13:05:29;;;;;;;1.13;1.13;;;9.00;99.90;;;;;;5055432;28;20269;-75
2023/12/24 13:07:56;;;;;;;0.90;0.90;;;9.00;99.90;;;;;;5042990;28;20205;-75
2023/12/24 13:10:33;;;;;;;0.70;0.70;;;9.00;99.90;;;;;;5044121;28;20170;-76
2023/12/24 13:13:12;;;;;;;0.32;0.32;;;9.00;99.90;;;;;;5054293;28;20186;-76
2023/12/24 13:15:43;;;;;;;1.42;1.33;;;9.00;99.90;;;;;;5048675;28;20265;-76
2023/12/24 13:18:16;;;;;;;76.68;54.80;;;9.00;99.90;;;;;;5052215;28;20185;-77
2023/12/24 13:21:02;;;;;;;31.35;23.33;;;9.00;99.90;;;;;;5056453;28;20219;-76
2023/12/24 13:23:38;;;;;;;2.20;2.05;;;9.00;99.90;;;;;;5054903;28;20201;-81
2023/12/24 13:26:04;;;;;;;1.70;1.60;;;9.00;99.90;;;;;;5065936;28;20235;-76
2023/12/24 13:28:30;;;;;;;1.20;1.20;;;9.00;99.90;;;;;;5055217;28;20177;-75
2023/12/24 13:30:55;;;;;;;1.00;1.00;;;9.00;99.90;;;;;;5051624;28;20185;-81
2023/12/24 13:33:21;;;;;;;1.65;1.25;;;9.00;99.90;;;;;;5057561;28;20170;-77
2023/12/24 13:35:47;;;;;;;0.95;0.95;;;9.00;99.90;;;;;;5057733;28;20207;-76
2023/12/24 13:38:21;;;;;;;1.85;1.20;;;9.00;99.90;;;;;;5057153;28;20284;-75
2023/12/24 13:40:47;;;;;;;0.90;0.90;;;9.00;99.90;;;;;;5077432;28;20606;-76
2023/12/24 13:43:13;;;;;;;1.10;1.10;;;9.00;99.90;;;;;;5057127;28;20208;-75
2023/12/24 13:45:40;;;;;;;0.90;0.90;;;9.00;99.90;;;;;;5044089;28;20186;-75
2023/12/24 13:48:07;;;;;;;1.13;1.13;;;9.00;99.90;;;;;;5067893;28;20201;-76
2023/12/24 13:50:36;;;;;;;1.30;1.30;;;9.10;99.90;;;;;;5057230;28;20170;-75
2023/12/24 13:53:02;;;;;;;1.33;0.90;;;9.00;99.90;;;;;;5056795;28;20184;-76
2023/12/24 13:55:29;;;;;;;0.90;0.90;;;9.10;99.90;;;;;;5046416;28;20276;-75
2023/12/24 13:57:58;;;;;;;1.00;1.00;;;9.10;99.90;;;;;;5047443;28;20213;-75